sensor_id;sensor_type;location;lat;lon;timestamp;pressure;altitude;pressure_sealevel;temperature;humidity
39309;BME280;26019;47.510;19.122;2023-07-31T00:00:16;99901.06;;;18.36;100.00
39309;BME280;26019;47.510;19.122;2023-07-31T00:10:18;99901.06;;;18.36;100.00
39309;BME280;26019;47.510;19.122;2023-07-31T00:20:21;99904.78;;;18.30;100.00
39309;BME280;26019;47.510;19.122;2023-07-31T00:30:22;99905.28;;;18.39;100.00
39309;BME280;26019;47.510;19.122;2023-07-31T00:40:26;99913.34;;;18.34;100.00
39309;BME280;26019;47.510;19.122;2023-07-31T00:50:29;99925.28;;;18.20;100.00
39309;BME280;26019;47.510;19.122;2023-07-31T01:00:32;99917.16;;;18.27;100.00
39309;BME280;26019;47.510;19.122;2023-07-31T01:10:56;99914.69;;;18.43;100.00
39309;BME280;26019;47.510;19.122;2023-07-31T01:31:25;99925.34;;;18.19;100.00
39309;BME280;26019;47.510;19.122;2023-07-31T01:41:29;99920.91;;;18.21;100.00
39309;BME280;26019;47.510;19.122;2023-07-31T01:51:31;99925.19;;;18.22;100.00
39309;BME280;26019;47.510;19.122;2023-07-31T02:01:38;99908.75;;;18.20;100.00
39309;BME280;26019;47.510;19.122;2023-07-31T02:11:40;99902.59;;;18.21;100.00
39309;BME280;26019;47.510;19.122;2023-07-31T02:21:43;99905.09;;;18.03;100.00
39309;BME280;26019;47.510;19.122;2023-07-31T02:31:44;99921.22;;;17.92;100.00
39309;BME280;26019;47.510;19.122;2023-07-31T02:41:46;99922.50;;;17.82;100.00
39309;BME280;26019;47.510;19.122;2023-07-31T02:51:48;99909.69;;;17.76;100.00
39309;BME280;26019;47.510;19.122;2023-07-31T03:01:51;99938.56;;;17.73;100.00
39309;BME280;26019;47.510;19.122;2023-07-31T03:11:53;99950.69;;;17.75;100.00
39309;BME280;26019;47.510;19.122;2023-07-31T03:21:54;99947.06;;;17.78;100.00
39309;BME280;26019;47.510;19.122;2023-07-31T03:31:56;99950.72;;;17.74;100.00
39309;BME280;26019;47.510;19.122;2023-07-31T03:41:58;99950.44;;;17.82;100.00
39309;BME280;26019;47.510;19.122;2023-07-31T03:51:59;99966.56;;;17.91;100.00
39309;BME280;26019;47.510;19.122;2023-07-31T04:02:01;99976.09;;;18.15;100.00
39309;BME280;26019;47.510;19.122;2023-07-31T04:12:03;99966.19;;;18.21;100.00
39309;BME280;26019;47.510;19.122;2023-07-31T04:22:05;99978.53;;;18.39;100.00
39309;BME280;26019;47.510;19.122;2023-07-31T04:32:07;99969.06;;;18.36;100.00
39309;BME280;26019;47.510;19.122;2023-07-31T04:42:09;99974.78;;;18.44;100.00
39309;BME280;26019;47.510;19.122;2023-07-31T04:52:10;99987.47;;;18.54;100.00
39309;BME280;26019;47.510;19.122;2023-07-31T05:02:15;99999.16;;;18.65;100.00
39309;BME280;26019;47.510;19.122;2023-07-31T05:12:20;99997.97;;;18.73;100.00
39309;BME280;26019;47.510;19.122;2023-07-31T05:22:22;100012.81;;;18.72;100.00
39309;BME280;26019;47.510;19.122;2023-07-31T05:32:25;100024.16;;;18.92;100.00
39309;BME280;26019;47.510;19.122;2023-07-31T05:42:27;100024.88;;;19.15;100.00
39309;BME280;26019;47.510;19.122;2023-07-31T05:52:29;100025.53;;;19.20;100.00
39309;BME280;26019;47.510;19.122;2023-07-31T06:02:31;100023.22;;;19.69;100.00
39309;BME280;26019;47.510;19.122;2023-07-31T06:12:36;100027.50;;;20.07;100.00
39309;BME280;26019;47.510;19.122;2023-07-31T06:22:50;100031.03;;;20.24;100.00
39309;BME280;26019;47.510;19.122;2023-07-31T06:32:52;100030.56;;;21.00;100.00
39309;BME280;26019;47.510;19.122;2023-07-31T06:43:01;100027.53;;;21.40;97.22
39309;BME280;26019;47.510;19.122;2023-07-31T06:53:10;100027.19;;;21.62;92.73
39309;BME280;26019;47.510;19.122;2023-07-31T07:03:13;100038.81;;;21.26;98.79
39309;BME280;26019;47.510;19.122;2023-07-31T07:13:18;100030.06;;;20.94;97.57
39309;BME280;26019;47.510;19.122;2023-07-31T07:23:20;100043.38;;;21.07;99.73
39309;BME280;26019;47.510;19.122;2023-07-31T07:33:22;100037.53;;;21.66;95.48
39309;BME280;26019;47.510;19.122;2023-07-31T07:43:29;100040.41;;;21.77;84.88
39309;BME280;26019;47.510;19.122;2023-07-31T07:53:32;100045.06;;;22.33;74.77
39309;BME280;26019;47.510;19.122;2023-07-31T08:03:34;100045.16;;;21.38;71.29
39309;BME280;26019;47.510;19.122;2023-07-31T08:13:37;100053.97;;;21.21;70.84
39309;BME280;26019;47.510;19.122;2023-07-31T08:23:39;100035.44;;;22.48;61.78
39309;BME280;26019;47.510;19.122;2023-07-31T08:33:41;100040.59;;;22.93;62.76
39309;BME280;26019;47.510;19.122;2023-07-31T08:43:46;100031.47;;;22.99;56.28
39309;BME280;26019;47.510;19.122;2023-07-31T08:53:48;100025.25;;;23.29;57.43
39309;BME280;26019;47.510;19.122;2023-07-31T09:03:53;100011.59;;;23.49;53.06
39309;BME280;26019;47.510;19.122;2023-07-31T09:13:57;100022.47;;;23.45;50.15
39309;BME280;26019;47.510;19.122;2023-07-31T09:24:01;100012.09;;;25.24;46.24
39309;BME280;26019;47.510;19.122;2023-07-31T09:34:04;100001.84;;;27.94;41.58
39309;BME280;26019;47.510;19.122;2023-07-31T09:44:06;100004.06;;;29.23;37.52
39309;BME280;26019;47.510;19.122;2023-07-31T09:54:11;99995.66;;;29.97;34.75
39309;BME280;26019;47.510;19.122;2023-07-31T10:04:15;99996.28;;;31.22;32.33
39309;BME280;26019;47.510;19.122;2023-07-31T10:14:21;100009.22;;;33.28;29.16
39309;BME280;26019;47.510;19.122;2023-07-31T10:24:25;100012.72;;;35.39;26.02
39309;BME280;26019;47.510;19.122;2023-07-31T10:34:29;100005.25;;;34.94;26.28
39309;BME280;26019;47.510;19.122;2023-07-31T10:44:35;99986.84;;;33.62;27.92
39309;BME280;26019;47.510;19.122;2023-07-31T10:54:40;99984.03;;;32.18;29.84
39309;BME280;26019;47.510;19.122;2023-07-31T11:04:42;99984.47;;;33.92;27.47
39309;BME280;26019;47.510;19.122;2023-07-31T11:14:54;99977.78;;;35.39;25.66
39309;BME280;26019;47.510;19.122;2023-07-31T11:24:59;99952.81;;;34.52;26.13
39309;BME280;26019;47.510;19.122;2023-07-31T11:35:03;99958.81;;;35.64;23.63
39309;BME280;26019;47.510;19.122;2023-07-31T11:45:08;99951.69;;;36.61;22.96
39309;BME280;26019;47.510;19.122;2023-07-31T11:55:11;99954.09;;;37.08;22.58
39309;BME280;26019;47.510;19.122;2023-07-31T12:05:14;99959.53;;;37.14;22.48
39309;BME280;26019;47.510;19.122;2023-07-31T12:15:16;99947.09;;;38.34;21.15
39309;BME280;26019;47.510;19.122;2023-07-31T12:25:18;99926.78;;;39.00;20.50
39309;BME280;26019;47.510;19.122;2023-07-31T12:35:20;99920.59;;;40.71;18.67
39309;BME280;26019;47.510;19.122;2023-07-31T12:45:22;99912.19;;;41.37;17.93
39309;BME280;26019;47.510;19.122;2023-07-31T12:55:28;99895.72;;;36.93;22.23
39309;BME280;26019;47.510;19.122;2023-07-31T13:05:30;99896.63;;;38.96;20.45
39309;BME280;26019;47.510;19.122;2023-07-31T13:15:35;99874.88;;;41.14;18.29
39309;BME280;26019;47.510;19.122;2023-07-31T13:25:37;99880.34;;;40.75;18.62
39309;BME280;26019;47.510;19.122;2023-07-31T13:35:39;99878.94;;;39.81;19.00
39309;BME280;26019;47.510;19.122;2023-07-31T13:45:40;99870.41;;;40.30;19.07
39309;BME280;26019;47.510;19.122;2023-07-31T13:55:44;99862.47;;;37.93;20.93
39309;BME280;26019;47.510;19.122;2023-07-31T14:05:48;99855.88;;;36.08;22.42
39309;BME280;26019;47.510;19.122;2023-07-31T14:15:56;99858.66;;;34.07;23.92
39309;BME280;26019;47.510;19.122;2023-07-31T14:25:58;99845.47;;;33.89;25.23
39309;BME280;26019;47.510;19.122;2023-07-31T14:36:01;99834.97;;;33.71;25.22
39309;BME280;26019;47.510;19.122;2023-07-31T14:46:05;99823.16;;;38.12;21.16
39309;BME280;26019;47.510;19.122;2023-07-31T14:56:07;99830.06;;;37.16;20.96
39309;BME280;26019;47.510;19.122;2023-07-31T15:06:10;99825.94;;;37.90;20.88
39309;BME280;26019;47.510;19.122;2023-07-31T15:16:18;99820.47;;;39.87;18.20
39309;BME280;26019;47.510;19.122;2023-07-31T15:26:22;99813.75;;;36.15;22.62
39309;BME280;26019;47.510;19.122;2023-07-31T15:36:23;99800.69;;;37.21;22.12
39309;BME280;26019;47.510;19.122;2023-07-31T15:46:29;99787.91;;;38.14;20.22
39309;BME280;26019;47.510;19.122;2023-07-31T15:56:31;99776.75;;;36.83;21.05
39309;BME280;26019;47.510;19.122;2023-07-31T16:06:33;99783.22;;;37.87;20.00
39309;BME280;26019;47.510;19.122;2023-07-31T16:16:38;99772.19;;;37.33;20.43
39309;BME280;26019;47.510;19.122;2023-07-31T16:26:41;99779.72;;;36.44;21.18
39309;BME280;26019;47.510;19.122;2023-07-31T16:36:43;99779.63;;;38.22;20.37
39309;BME280;26019;47.510;19.122;2023-07-31T16:46:45;99778.69;;;31.88;26.74
39309;BME280;26019;47.510;19.122;2023-07-31T16:56:48;99784.88;;;28.86;31.48
39309;BME280;26019;47.510;19.122;2023-07-31T17:07:00;99773.31;;;27.03;35.35
39309;BME280;26019;47.510;19.122;2023-07-31T17:17:02;99787.53;;;27.44;34.21
39309;BME280;26019;47.510;19.122;2023-07-31T17:27:04;99790.81;;;28.29;33.65
39309;BME280;26019;47.510;19.122;2023-07-31T17:37:08;99790.13;;;28.67;32.68
39309;BME280;26019;47.510;19.122;2023-07-31T17:47:11;99809.06;;;26.09;36.26
39309;BME280;26019;47.510;19.122;2023-07-31T17:57:13;99812.97;;;25.35;38.67
39309;BME280;26019;47.510;19.122;2023-07-31T18:07:16;99806.88;;;24.37;40.56
39309;BME280;26019;47.510;19.122;2023-07-31T18:17:20;99803.22;;;23.77;43.51
39309;BME280;26019;47.510;19.122;2023-07-31T18:27:22;99811.00;;;23.26;44.01
39309;BME280;26019;47.510;19.122;2023-07-31T18:37:26;99814.69;;;22.96;45.35
39309;BME280;26019;47.510;19.122;2023-07-31T18:47:29;99822.78;;;22.24;49.69
39309;BME280;26019;47.510;19.122;2023-07-31T18:57:32;99818.28;;;21.83;50.27
39309;BME280;26019;47.510;19.122;2023-07-31T19:07:34;99832.94;;;21.72;54.01
39309;BME280;26019;47.510;19.122;2023-07-31T19:17:38;99839.50;;;21.34;57.31
39309;BME280;26019;47.510;19.122;2023-07-31T19:27:44;99823.84;;;21.02;62.58
39309;BME280;26019;47.510;19.122;2023-07-31T19:37:54;99818.13;;;20.48;67.17
39309;BME280;26019;47.510;19.122;2023-07-31T19:47:57;99826.94;;;20.47;69.14
39309;BME280;26019;47.510;19.122;2023-07-31T19:57:59;99827.16;;;20.42;76.53
39309;BME280;26019;47.510;19.122;2023-07-31T20:08:01;99825.72;;;20.04;83.21
39309;BME280;26019;47.510;19.122;2023-07-31T20:18:03;99824.97;;;19.84;82.24
39309;BME280;26019;47.510;19.122;2023-07-31T20:28:05;99822.81;;;19.93;79.70
39309;BME280;26019;47.510;19.122;2023-07-31T20:38:08;99822.69;;;19.61;83.93
39309;BME280;26019;47.510;19.122;2023-07-31T20:48:10;99814.84;;;19.43;85.20
39309;BME280;26019;47.510;19.122;2023-07-31T20:58:14;99816.09;;;19.53;89.38
39309;BME280;26019;47.510;19.122;2023-07-31T21:08:16;99796.66;;;19.22;91.35
39309;BME280;26019;47.510;19.122;2023-07-31T21:18:18;99790.03;;;18.98;95.34
39309;BME280;26019;47.510;19.122;2023-07-31T21:28:21;99785.75;;;18.77;100.00
39309;BME280;26019;47.510;19.122;2023-07-31T21:38:23;99787.28;;;18.64;100.00
39309;BME280;26019;47.510;19.122;2023-07-31T21:48:33;99788.47;;;18.57;100.00
39309;BME280;26019;47.510;19.122;2023-07-31T21:58:36;99790.06;;;18.42;100.00
39309;BME280;26019;47.510;19.122;2023-07-31T22:08:38;99769.28;;;18.19;100.00
39309;BME280;26019;47.510;19.122;2023-07-31T22:18:40;99763.25;;;17.98;100.00
39309;BME280;26019;47.510;19.122;2023-07-31T22:28:42;99762.38;;;17.99;100.00
39309;BME280;26019;47.510;19.122;2023-07-31T22:38:44;99748.94;;;17.88;100.00
39309;BME280;26019;47.510;19.122;2023-07-31T22:48:46;99748.13;;;17.67;100.00
39309;BME280;26019;47.510;19.122;2023-07-31T22:58:48;99743.03;;;17.43;100.00
39309;BME280;26019;47.510;19.122;2023-07-31T23:08:50;99746.25;;;17.29;100.00
39309;BME280;26019;47.510;19.122;2023-07-31T23:18:54;99732.97;;;17.14;100.00
39309;BME280;26019;47.510;19.122;2023-07-31T23:28:58;99724.72;;;17.03;100.00
39309;BME280;26019;47.510;19.122;2023-07-31T23:39:01;99700.66;;;16.95;100.00
39309;BME280;26019;47.510;19.122;2023-07-31T23:49:03;99688.47;;;16.75;100.00
39309;BME280;26019;47.510;19.122;2023-07-31T23:59:05;99682.91;;;16.62;100.00
